Time;durP1;ratioP1;P1;durP2;ratioP2;P2;SDS_P1;SDS_P2;PMS_P1;PMS_P2;Temp;Humidity;BMP_temperature;BMP_pressure;BME280_temperature;BME280_humidity;BME280_pressure;Samples;Min_cycle;Max_cycle;Signal;HPM_P1;HPM_P2
2021/04/06 00:00:21;;;;;;;3.20;0.28;;;2.40;99.90;;;;;;5071682;28;20348;-77
2021/04/06 00:02:49;;;;;;;7.28;0.20;;;2.40;99.90;;;;;;5071547;28;20044;-77
2021/04/06 00:05:16;;;;;;;5.90;1.10;;;2.50;99.90;;;;;;5088956;28;20044;-77
2021/04/06 00:07:43;;;;;;;4.78;0.25;;;2.50;99.90;;;;;;5087736;28;20048;-78
2021/04/06 00:10:17;;;;;;;5.15;0.20;;;2.50;99.90;;;;;;5070941;28;20108;-77
2021/04/06 00:12:46;;;;;;;9.43;0.35;;;2.40;99.90;;;;;;5087959;28;20028;-78
2021/04/06 00:15:14;;;;;;;2.63;0.20;;;2.10;99.90;;;;;;5088915;28;20104;-77
2021/04/06 00:17:46;;;;;;;1.38;0.10;;;1.80;99.90;;;;;;5052817;28;20029;-78
2021/04/06 00:20:14;;;;;;;4.57;0.10;;;1.50;99.90;;;;;;5068675;28;20064;-78
2021/04/06 00:22:41;;;;;;;4.57;0.10;;;1.40;99.90;;;;;;5068877;28;20476;-78
2021/04/06 00:25:13;;;;;;;5.32;0.20;;;1.20;99.90;;;;;;5050878;28;20024;-78
2021/04/06 00:27:42;;;;;;;3.22;0.17;;;1.10;99.90;;;;;;5034342;28;20036;-78
2021/04/06 00:30:14;;;;;;;2.67;0.10;;;1.00;99.90;;;;;;5050598;28;20059;-78
2021/04/06 00:32:41;;;;;;;5.43;0.30;;;1.00;99.90;;;;;;5050716;28;20481;-78
2021/04/06 00:35:08;;;;;;;3.67;0.20;;;0.90;99.90;;;;;;5068386;28;20116;-78
2021/04/06 00:37:45;;;;;;;4.75;0.10;;;0.90;99.90;;;;;;5068438;28;20032;-78
2021/04/06 00:40:12;;;;;;;5.20;0.20;;;0.80;99.90;;;;;;5068635;28;20033;-78
2021/04/06 00:42:39;;;;;;;4.72;0.30;;;0.80;99.90;;;;;;5050630;28;20032;-78
2021/04/06 00:45:14;;;;;;;3.67;0.20;;;0.90;99.90;;;;;;5050783;28;20025;-78
2021/04/06 00:47:41;;;;;;;4.80;0.30;;;0.90;99.90;;;;;;5050672;28;20119;-78
2021/04/06 00:50:16;;;;;;;3.72;0.20;;;0.90;99.90;;;;;;5050050;28;20037;-78
2021/04/06 00:52:47;;;;;;;;;;;1.00;99.90;;;;;;5087552;28;20380;-78
2021/04/06 00:55:17;;;;;;;6.15;0.38;;;1.00;99.90;;;;;;5088279;28;19908;-78
2021/04/06 00:57:44;;;;;;;5.07;0.22;;;1.10;99.90;;;;;;5070297;28;20156;-78
2021/04/06 01:00:20;;;;;;;6.13;0.40;;;1.10;99.90;;;;;;5069979;28;20559;-78
2021/04/06 01:03:10;;;;;;;6.22;0.60;;;1.20;99.90;;;;;;5087546;28;20036;-78
2021/04/06 01:05:59;;;;;;;2.88;0.28;;;1.30;99.90;;;;;;5069745;28;20400;-78
2021/04/06 01:08:30;;;;;;;4.85;0.15;;;1.30;99.90;;;;;;4986404;28;20089;-78
2021/04/06 01:10:57;;;;;;;7.43;0.28;;;1.30;99.90;;;;;;4986467;28;20050;-78
2021/04/06 01:13:23;;;;;;;4.82;0.30;;;1.30;99.90;;;;;;4986124;28;20046;-78
2021/04/06 01:15:50;;;;;;;8.20;0.35;;;1.30;99.90;;;;;;4986547;28;20035;-78
2021/04/06 01:18:16;;;;;;;5.28;0.30;;;1.30;99.90;;;;;;4970392;28;20096;-78
2021/04/06 01:20:43;;;;;;;5.93;0.35;;;1.30;99.90;;;;;;4986101;28;20205;-78
2021/04/06 01:23:15;;;;;;;6.97;0.40;;;1.40;99.90;;;;;;4986458;28;20031;-78
2021/04/06 01:25:45;;;;;;;6.68;0.38;;;1.40;99.90;;;;;;4986453;28;20163;-78
2021/04/06 01:28:12;;;;;;;7.00;0.38;;;1.40;99.90;;;;;;4970176;28;20027;-78
2021/04/06 01:30:48;;;;;;;11.50;0.20;;;1.30;99.90;;;;;;4986105;28;20062;-78
2021/04/06 01:33:21;;;;;;;4.90;0.30;;;1.30;99.90;;;;;;4986240;28;20057;-77
2021/04/06 01:35:49;;;;;;;9.18;0.30;;;1.10;99.90;;;;;;4985759;28;20038;-78
2021/04/06 01:38:15;;;;;;;4.78;0.35;;;1.10;99.90;;;;;;4986193;28;20039;-78
2021/04/06 01:40:43;;;;;;;8.77;0.40;;;1.10;99.90;;;;;;4969669;28;20031;-78
2021/04/06 01:43:10;;;;;;;10.23;0.85;;;1.00;99.90;;;;;;4985791;28;20124;-78
2021/04/06 01:45:43;;;;;;;2.22;0.20;;;1.00;99.90;;;;;;5031993;28;20053;-78
2021/04/06 01:48:11;;;;;;;4.03;0.20;;;1.00;99.90;;;;;;5049366;28;20060;-78
2021/04/06 01:50:37;;;;;;;5.53;0.20;;;1.00;99.90;;;;;;5049885;28;20123;-78
2021/04/06 01:53:03;;;;;;;3.13;0.20;;;1.10;99.90;;;;;;5087240;28;20039;-78
2021/04/06 01:55:31;;;;;;;4.13;0.30;;;1.10;99.90;;;;;;5069064;28;20062;-78
2021/04/06 01:57:58;;;;;;;6.20;0.15;;;1.00;99.90;;;;;;5085810;28;20078;-78
2021/04/06 02:02:56;;;;;;;6.78;0.50;;;0.90;99.90;;;;;;5069013;28;20029;-78
2021/04/06 02:05:24;;;;;;;5.88;0.30;;;1.00;99.90;;;;;;5068746;28;20028;-78
2021/04/06 02:07:51;;;;;;;6.82;0.20;;;1.00;99.90;;;;;;5065427;28;20127;-78
2021/04/06 02:10:17;;;;;;;6.07;0.40;;;1.10;99.90;;;;;;5065329;28;20045;-78
2021/04/06 02:12:44;;;;;;;5.28;0.70;;;1.20;99.90;;;;;;5066112;28;20029;-78
2021/04/06 02:15:11;;;;;;;8.82;0.40;;;1.10;99.90;;;;;;5081979;28;20043;-78
2021/04/06 02:18:07;;;;;;;11.98;0.77;;;1.20;99.90;;;;;;5082180;28;20033;-78
2021/04/06 02:20:33;;;;;;;8.23;0.40;;;1.20;99.90;;;;;;5057199;28;20041;-78
2021/04/06 02:23:01;;;;;;;13.73;0.50;;;1.30;99.90;;;;;;5065254;28;20029;-78
2021/04/06 02:25:28;;;;;;;11.50;0.57;;;1.30;99.90;;;;;;5066698;28;20085;-78
2021/04/06 02:27:54;;;;;;;14.32;0.60;;;1.30;99.90;;;;;;5066577;28;20271;-77
2021/04/06 02:30:30;;;;;;;9.07;0.40;;;1.40;99.90;;;;;;5065276;28;20267;-78
2021/04/06 02:33:02;;;;;;;13.30;0.73;;;1.30;99.90;;;;;;5066476;28;20033;-78
2021/04/06 02:35:28;;;;;;;15.98;1.35;;;1.30;99.90;;;;;;5066350;28;20107;-78
2021/04/06 02:37:55;;;;;;;11.52;0.52;;;1.30;99.90;;;;;;5065049;28;20086;-78
2021/04/06 02:40:21;;;;;;;19.65;0.63;;;1.30;99.90;;;;;;5065743;28;20025;-78
2021/04/06 02:42:54;;;;;;;12.48;0.73;;;1.40;99.90;;;;;;5065063;28;20032;-78
2021/04/06 02:45:23;;;;;;;16.38;0.70;;;1.30;99.90;;;;;;5081827;28;20032;-78
2021/04/06 02:47:55;;;;;;;15.80;1.35;;;1.30;99.90;;;;;;5066225;28;20040;-78
2021/04/06 02:50:25;;;;;;;11.35;0.70;;;1.40;99.90;;;;;;5065885;28;20036;-78
2021/04/06 02:52:51;;;;;;;;;;;1.50;99.90;;;;;;5046136;28;20052;-78
2021/04/06 02:55:17;;;;;;;17.30;1.00;;;1.50;99.90;;;;;;5044943;28;19909;-78
2021/04/06 02:57:48;;;;;;;15.85;1.08;;;1.50;99.90;;;;;;5046097;28;20124;-78
2021/04/06 03:00:26;;;;;;;16.80;0.85;;;1.50;99.90;;;;;;5044765;28;20021;-78
2021/04/06 03:02:52;;;;;;;11.20;0.50;;;1.60;99.90;;;;;;5062834;28;20032;-78
2021/04/06 03:08:37;;;;;;;16.20;0.50;;;1.50;99.90;;;;;;5003376;28;20077;-78
2021/04/06 03:11:04;;;;;;;21.27;1.35;;;1.50;99.90;;;;;;4971350;28;20061;-78
2021/04/06 03:13:31;;;;;;;12.50;1.45;;;1.70;99.90;;;;;;4987637;28;20569;-78
2021/04/06 03:15:57;;;;;;;14.10;1.20;;;1.60;99.90;;;;;;4987702;28;20391;-78
2021/04/06 03:18:39;;;;;;;16.17;0.70;;;1.60;99.90;;;;;;4971367;28;20034;-78
2021/04/06 03:21:08;;;;;;;13.23;1.20;;;1.60;99.90;;;;;;4971366;28;20106;-78
2021/04/06 03:23:34;;;;;;;13.02;0.77;;;1.60;99.90;;;;;;4971392;28;20093;-78
2021/04/06 03:26:02;;;;;;;10.88;0.85;;;1.40;99.90;;;;;;4971054;28;20038;-78
2021/04/06 03:28:45;;;;;;;10.63;0.68;;;1.30;99.90;;;;;;5003656;28;20034;-78
2021/04/06 03:31:14;;;;;;;9.90;1.10;;;1.10;99.90;;;;;;5003477;28;20514;-78
2021/04/06 03:33:44;;;;;;;11.32;0.60;;;1.10;99.90;;;;;;4987330;28;20038;-78
2021/04/06 03:36:28;;;;;;;6.72;0.30;;;1.00;99.90;;;;;;4987496;28;20058;-78
2021/04/06 03:38:59;;;;;;;7.07;0.40;;;0.90;99.90;;;;;;5003434;28;20110;-78
2021/04/06 03:41:27;;;;;;;11.38;0.35;;;0.80;99.90;;;;;;4987270;28;20034;-78
2021/04/06 03:44:01;;;;;;;7.20;0.30;;;0.80;99.90;;;;;;5003478;28;20034;-78
2021/04/06 03:46:26;;;;;;;7.88;0.40;;;0.80;99.90;;;;;;5036497;28;20485;-78
2021/04/06 03:48:52;;;;;;;5.38;0.40;;;0.80;99.90;;;;;;5043838;28;20068;-78
2021/04/06 03:51:29;;;;;;;4.15;0.38;;;0.80;99.90;;;;;;5045231;28;20085;-78
2021/04/06 03:53:56;;;;;;;6.93;0.68;;;0.80;99.90;;;;;;5045239;28;20025;-79
2021/04/06 03:56:32;;;;;;;6.28;0.40;;;0.80;99.90;;;;;;5044054;28;20021;-79
2021/04/06 03:59:01;;;;;;;4.55;0.32;;;0.80;99.90;;;;;;5043640;28;20026;-79
2021/04/06 04:01:27;;;;;;;5.60;0.30;;;0.80;99.90;;;;;;5043531;28;20112;-78
2021/04/06 04:03:57;;;;;;;3.00;0.20;;;0.70;99.90;;;;;;5043862;28;20040;-78
2021/04/06 04:06:26;;;;;;;;;;;0.70;99.90;;;;;;5044501;28;20373;-78
2021/04/06 04:08:53;;;;;;;5.00;0.30;;;0.70;99.90;;;;;;5077240;28;20309;-78
2021/04/06 04:11:19;;;;;;;4.30;0.40;;;0.70;99.90;;;;;;5080833;28;20040;-78
2021/04/06 04:13:45;;;;;;;6.72;0.38;;;0.70;99.90;;;;;;5064083;28;20048;-78
2021/04/06 04:16:11;;;;;;;2.95;0.20;;;0.70;99.90;;;;;;5063929;28;20029;-78
2021/04/06 04:18:36;;;;;;;3.28;0.22;;;0.60;99.90;;;;;;5063995;28;20055;-78
2021/04/06 04:21:03;;;;;;;4.85;0.47;;;0.60;99.90;;;;;;5063709;28;20531;-78
2021/04/06 04:23:30;;;;;;;3.55;0.55;;;0.60;99.90;;;;;;5063845;28;20401;-78
2021/04/06 04:25:56;;;;;;;6.22;0.30;;;0.60;99.90;;;;;;5046054;28;20025;-78
2021/04/06 04:28:21;;;;;;;10.80;0.40;;;0.60;99.90;;;;;;5044504;28;20090;-78
2021/04/06 04:30:49;;;;;;;9.35;0.30;;;0.70;99.90;;;;;;5043258;28;20109;-78
2021/04/06 04:33:15;;;;;;;9.07;0.68;;;0.70;99.90;;;;;;5060466;28;20061;-78
2021/04/06 04:35:41;;;;;;;13.75;0.30;;;0.70;99.90;;;;;;5044906;28;20029;-78
2021/04/06 04:38:07;;;;;;;4.00;0.20;;;0.80;99.90;;;;;;5063415;28;20030;-78
2021/04/06 04:40:34;;;;;;;6.70;0.57;;;0.70;99.90;;;;;;5063908;28;20048;-78
2021/04/06 04:43:00;;;;;;;6.43;0.20;;;0.70;99.90;;;;;;5043479;28;20029;-78
2021/04/06 04:45:26;;;;;;;7.97;0.40;;;0.70;99.90;;;;;;5048560;28;20068;-78
2021/04/06 04:47:52;;;;;;;8.65;0.50;;;0.70;99.90;;;;;;5063988;28;20025;-78
2021/04/06 04:50:22;;;;;;;6.38;0.38;;;0.80;99.90;;;;;;5063654;28;20044;-78
2021/04/06 04:52:48;;;;;;;9.60;0.35;;;0.80;99.90;;;;;;5047151;28;20037;-78
2021/04/06 04:55:16;;;;;;;8.60;0.40;;;0.90;99.90;;;;;;5063441;28;20505;-78
2021/04/06 04:57:42;;;;;;;5.32;0.25;;;0.80;99.90;;;;;;5063484;28;20030;-78
2021/04/06 05:00:09;;;;;;;6.53;1.10;;;0.70;99.90;;;;;;5047116;28;20105;-78
2021/04/06 05:02:35;;;;;;;6.82;0.40;;;0.70;99.90;;;;;;5063939;28;20112;-78
2021/04/06 05:05:01;;;;;;;9.80;0.60;;;0.80;99.90;;;;;;5056917;28;20029;-78
2021/04/06 05:07:27;;;;;;;8.07;0.40;;;0.70;99.90;;;;;;5063176;28;20575;-78
2021/04/06 05:09:53;;;;;;;4.78;0.28;;;0.80;99.90;;;;;;5046488;28;20071;-78
2021/04/06 05:12:19;;;;;;;13.90;1.00;;;0.70;99.90;;;;;;5046693;28;20041;-78
2021/04/06 05:14:46;;;;;;;6.10;0.30;;;0.70;99.90;;;;;;5042963;28;20060;-78
2021/04/06 05:17:13;;;;;;;6.35;0.40;;;0.70;99.90;;;;;;5055320;28;20104;-79
2021/04/06 05:19:38;;;;;;;8.25;0.32;;;0.70;99.90;;;;;;5046074;28;20033;-79
2021/04/06 05:22:07;;;;;;;5.72;0.35;;;0.70;99.90;;;;;;5029672;28;20028;-80
2021/04/06 05:24:33;;;;;;;7.57;0.30;;;0.70;99.90;;;;;;5062756;28;20037;-79
2021/04/06 05:26:58;;;;;;;5.68;0.38;;;0.70;99.90;;;;;;5046308;28;20022;-79
2021/04/06 05:29:24;;;;;;;9.43;0.30;;;0.80;99.90;;;;;;5029425;28;20422;-79
2021/04/06 05:31:50;;;;;;;6.55;0.30;;;0.80;99.90;;;;;;5046350;28;20037;-79
2021/04/06 05:34:15;;;;;;;5.97;0.20;;;0.80;99.90;;;;;;5046066;28;20128;-79
2021/04/06 05:36:41;;;;;;;5.53;0.80;;;0.80;99.90;;;;;;5028791;28;20032;-79
2021/04/06 05:39:07;;;;;;;4.93;0.40;;;0.90;99.90;;;;;;5028986;28;20128;-79
2021/04/06 05:41:34;;;;;;;3.85;0.30;;;0.90;99.90;;;;;;5045073;28;20036;-79
2021/04/06 05:44:02;;;;;;;6.65;0.40;;;0.90;99.90;;;;;;5045220;28;20045;-79
2021/04/06 05:46:34;;;;;;;6.15;0.40;;;0.80;99.90;;;;;;5028338;28;20036;-80
2021/04/06 05:49:10;;;;;;;4.00;0.40;;;0.80;99.90;;;;;;5045156;28;20045;-79
2021/04/06 05:51:38;;;;;;;6.07;0.40;;;0.70;99.90;;;;;;5044959;28;20037;-79
2021/04/06 05:54:04;;;;;;;6.43;0.88;;;0.70;99.90;;;;;;5061789;28;20029;-79
2021/04/06 05:56:30;;;;;;;7.53;0.75;;;0.70;99.90;;;;;;5061639;28;20087;-79
2021/04/06 05:58:58;;;;;;;6.78;0.52;;;0.70;99.90;;;;;;5046116;28;20048;-79
2021/04/06 06:01:27;;;;;;;7.18;0.43;;;0.80;99.90;;;;;;5045053;28;20080;-79
2021/04/06 06:03:52;;;;;;;5.05;0.50;;;0.80;99.90;;;;;;5061547;28;20056;-79
2021/04/06 06:06:18;;;;;;;5.90;0.93;;;0.80;99.90;;;;;;5044804;28;20042;-79
2021/04/06 06:08:52;;;;;;;7.32;0.55;;;0.80;99.90;;;;;;5044755;28;20050;-79
2021/04/06 06:11:18;;;;;;;11.63;1.95;;;0.80;99.90;;;;;;5044452;28;20083;-80
2021/04/06 06:13:44;;;;;;;7.43;1.05;;;0.90;99.90;;;;;;5061105;28;20563;-79
2021/04/06 06:16:22;;;;;;;5.13;0.40;;;0.90;99.90;;;;;;5069245;22;20050;-79
2021/04/06 06:19:01;;;;;;;7.43;0.60;;;1.00;99.90;;;;;;5028537;28;20081;-79
2021/04/06 06:21:56;;;;;;;6.82;0.75;;;1.00;99.90;;;;;;5027912;28;20059;-80
2021/04/06 06:24:30;;;;;;;9.13;0.47;;;1.10;99.90;;;;;;5031982;28;20076;-79
2021/04/06 06:26:57;;;;;;;5.35;0.82;;;1.20;99.90;;;;;;5045786;28;20026;-79
2021/04/06 06:29:27;;;;;;;5.85;0.50;;;1.30;99.90;;;;;;5045714;28;20048;-79
2021/04/06 06:31:58;;;;;;;13.77;0.50;;;1.40;99.90;;;;;;5044525;28;20029;-80
2021/04/06 06:34:38;;;;;;;9.00;0.50;;;1.30;99.90;;;;;;5028055;28;20047;-80
2021/04/06 06:37:22;;;;;;;9.50;0.40;;;1.40;99.90;;;;;;5044220;28;20128;-79
2021/04/06 06:39:54;;;;;;;7.63;0.45;;;1.50;99.90;;;;;;5044226;28;20275;-80
2021/04/06 06:42:24;;;;;;;7.93;1.02;;;1.50;99.90;;;;;;5045250;28;20059;-80
2021/04/06 06:44:50;;;;;;;7.90;0.65;;;1.60;99.90;;;;;;5044295;28;20497;-79
2021/04/06 06:47:43;;;;;;;12.10;1.42;;;1.70;99.90;;;;;;5027632;28;20048;-79
2021/04/06 06:50:11;;;;;;;11.63;0.63;;;1.70;99.90;;;;;;5043957;28;20048;-79
2021/04/06 06:52:38;;;;;;;6.93;0.60;;;1.80;99.90;;;;;;5062860;28;20028;-79
2021/04/06 06:55:23;;;;;;;7.55;0.45;;;1.90;99.90;;;;;;5047426;28;20120;-79
2021/04/06 06:57:49;;;;;;;7.80;0.40;;;1.90;99.90;;;;;;5047053;28;20041;-79
2021/04/06 07:00:22;;;;;;;11.50;0.40;;;1.90;99.90;;;;;;5046660;28;20067;-79
2021/04/06 07:02:48;;;;;;;8.70;0.90;;;1.80;99.90;;;;;;5047131;28;20028;-80
2021/04/06 07:05:15;;;;;;;5.38;0.35;;;1.80;99.90;;;;;;5035433;28;20025;-79
2021/04/06 07:07:49;;;;;;;10.68;0.50;;;1.70;99.90;;;;;;5043731;28;20064;-80
2021/04/06 07:10:17;;;;;;;8.70;0.77;;;1.80;99.90;;;;;;5027288;28;20045;-80
2021/04/06 07:12:47;;;;;;;5.30;0.30;;;1.80;99.90;;;;;;5026900;28;20532;-80
2021/04/06 07:15:14;;;;;;;;;;;1.80;99.90;;;;;;5027920;28;20091;-80
2021/04/06 07:17:42;;;;;;;13.85;0.93;;;1.80;99.90;;;;;;5007303;28;19921;-80
2021/04/06 07:20:16;;;;;;;7.45;0.40;;;1.90;99.90;;;;;;5024970;28;20093;-80
2021/04/06 07:22:46;;;;;;;6.18;0.30;;;2.00;99.90;;;;;;5025181;28;20026;-80
2021/04/06 07:25:13;;;;;;;7.10;0.47;;;2.00;99.90;;;;;;5040208;28;20405;-80
2021/04/06 07:27:41;;;;;;;7.22;0.30;;;2.00;99.90;;;;;;5023231;28;20041;-80
2021/04/06 07:30:10;;;;;;;10.57;1.63;;;2.00;99.90;;;;;;5040190;28;20076;-79
2021/04/06 07:32:36;;;;;;;6.88;0.30;;;1.90;99.90;;;;;;5023927;28;20030;-80
2021/04/06 07:35:01;;;;;;;5.75;0.43;;;2.00;99.90;;;;;;5025163;28;20034;-80
2021/04/06 07:37:29;;;;;;;10.88;0.95;;;2.10;99.90;;;;;;5040005;28;20117;-80
2021/04/06 07:39:56;;;;;;;8.52;0.40;;;2.20;99.90;;;;;;5023565;28;20140;-80
2021/04/06 07:42:22;;;;;;;6.00;0.40;;;2.30;99.90;;;;;;5039894;28;20052;-80
2021/04/06 07:44:47;;;;;;;11.55;0.47;;;2.50;99.90;;;;;;5023090;28;20061;-80
2021/04/06 07:47:13;;;;;;;5.72;0.47;;;2.60;99.90;;;;;;5039787;28;20034;-80
2021/04/06 07:49:39;;;;;;;10.43;0.57;;;2.80;99.90;;;;;;5039951;28;20045;-80
2021/04/06 07:52:25;;;;;;;2.30;0.30;;;2.90;99.90;;;;;;5030436;28;20144;-80
2021/04/06 07:54:51;;;;;;;6.32;0.40;;;2.90;99.90;;;;;;5006891;28;20037;-79
2021/04/06 07:57:18;;;;;;;3.47;0.30;;;3.20;99.90;;;;;;5039818;28;20026;-80
2021/04/06 07:59:50;;;;;;;9.25;0.40;;;3.20;99.90;;;;;;5039628;28;20065;-80
2021/04/06 08:02:15;;;;;;;4.43;0.30;;;3.40;99.90;;;;;;5039912;28;20025;-81
2021/04/06 08:04:44;;;;;;;9.00;0.40;;;3.50;99.90;;;;;;5007072;28;20421;-80
2021/04/06 08:07:19;;;;;;;4.30;0.35;;;3.30;99.90;;;;;;5039837;28;20044;-80
2021/04/06 08:09:55;;;;;;;7.43;0.40;;;3.50;99.90;;;;;;5039886;28;20038;-80
2021/04/06 08:12:35;;;;;;;8.70;0.73;;;3.70;99.90;;;;;;5025205;28;20025;-80
2021/04/06 08:15:09;;;;;;;6.28;0.35;;;3.50;99.90;;;;;;5027307;28;20041;-80
2021/04/06 08:17:42;;;;;;;6.90;0.30;;;3.10;99.90;;;;;;5047259;28;20046;-80
2021/04/06 08:20:21;;;;;;;11.02;0.45;;;3.00;99.90;;;;;;5030709;28;20085;-79
2021/04/06 08:22:51;;;;;;;5.22;0.30;;;2.90;99.90;;;;;;5048280;28;20027;-79
2021/04/06 08:25:26;;;;;;;;;;;3.50;99.90;;;;;;5014694;28;20037;-79
2021/04/06 08:27:54;;;;;;;8.15;0.40;;;3.20;99.90;;;;;;5030163;28;19909;-80
2021/04/06 08:30:21;;;;;;;6.07;0.30;;;3.70;99.90;;;;;;5046714;28;20049;-80
2021/04/06 08:32:59;;;;;;;10.90;0.52;;;3.90;99.90;;;;;;5013220;28;20052;-79
2021/04/06 08:38:25;;;;;;;4.03;0.40;;;3.80;99.90;;;;;;5025297;28;20393;-79
2021/04/06 08:41:12;;;;;;;6.90;0.20;;;4.40;99.90;;;;;;5024502;28;20029;-79
2021/04/06 08:43:44;;;;;;;3.88;0.28;;;4.40;99.90;;;;;;5020023;28;20036;-79
2021/04/06 08:46:13;;;;;;;4.28;0.20;;;4.00;99.90;;;;;;5006642;28;20134;-79
2021/04/06 08:48:49;;;;;;;4.10;0.30;;;4.10;99.90;;;;;;5009255;28;20048;-79
2021/04/06 08:51:19;;;;;;;7.40;0.20;;;4.40;99.90;;;;;;5024262;28;20283;-79
2021/04/06 08:53:51;;;;;;;2.72;0.30;;;4.50;99.90;;;;;;5026972;28;20048;-79
2021/04/06 08:56:28;;;;;;;1.17;0.10;;;4.10;99.90;;;;;;5009270;28;20037;-78
2021/04/06 08:59:14;;;;;;;3.60;0.20;;;3.30;99.90;;;;;;5009679;28;20061;-79
2021/04/06 09:01:45;;;;;;;3.13;0.28;;;2.90;99.90;;;;;;5023872;28;20040;-79
2021/04/06 09:04:20;;;;;;;3.00;0.20;;;2.90;99.90;;;;;;4992943;28;20030;-79
2021/04/06 09:06:47;;;;;;;3.58;0.20;;;2.90;99.90;;;;;;4996239;28;20038;-79
2021/04/06 09:09:16;;;;;;;3.92;0.30;;;3.40;99.90;;;;;;5025300;28;20101;-78
2021/04/06 09:11:42;;;;;;;5.22;0.30;;;3.90;99.90;;;;;;5025019;28;20509;-79
2021/04/06 09:14:08;;;;;;;6.32;0.30;;;4.20;99.90;;;;;;4992700;28;20029;-79
2021/04/06 09:16:36;;;;;;;4.70;0.30;;;4.50;99.90;;;;;;4992576;28;20034;-79
2021/04/06 09:19:07;;;;;;;5.30;0.30;;;4.30;99.90;;;;;;5012356;28;20033;-79
2021/04/06 09:21:33;;;;;;;2.75;0.38;;;4.50;99.90;;;;;;5024914;28;20084;-79
2021/04/06 09:24:02;;;;;;;2.97;0.30;;;4.50;99.90;;;;;;5025990;28;20091;-79
2021/04/06 09:26:29;;;;;;;3.80;0.20;;;4.90;99.90;;;;;;4992213;28;20060;-79
2021/04/06 09:29:09;;;;;;;4.10;0.20;;;4.50;99.90;;;;;;4991901;28;20037;-78
2021/04/06 09:31:40;;;;;;;2.88;0.20;;;4.60;99.90;;;;;;5005609;28;20030;-78
2021/04/06 09:34:09;;;;;;;3.92;0.43;;;4.90;99.90;;;;;;5006115;28;20049;-79
2021/04/06 09:36:36;;;;;;;2.38;0.20;;;4.80;99.90;;;;;;5005779;28;20046;-78
2021/04/06 09:39:04;;;;;;;4.20;0.35;;;5.20;99.90;;;;;;5021845;28;20142;-78
2021/04/06 09:41:33;;;;;;;4.25;0.10;;;5.00;99.90;;;;;;5022117;28;20030;-79
2021/04/06 09:43:59;;;;;;;3.65;0.28;;;5.40;99.90;;;;;;5006039;28;20056;-79
2021/04/06 09:46:37;;;;;;;2.60;0.10;;;5.40;99.90;;;;;;4989589;28;20569;-79
2021/04/06 09:49:04;;;;;;;1.63;0.10;;;5.30;99.90;;;;;;5005701;28;20046;-78
2021/04/06 09:51:29;;;;;;;2.92;0.20;;;5.10;99.90;;;;;;4997279;28;20041;-79
2021/04/06 09:53:55;;;;;;;4.13;0.47;;;5.60;99.90;;;;;;5025571;28;20034;-78
2021/04/06 09:56:21;;;;;;;4.82;0.30;;;5.80;99.90;;;;;;5025190;28;20033;-78
2021/04/06 09:58:48;;;;;;;2.85;0.20;;;5.40;99.90;;;;;;5009131;28;20030;-78
2021/04/06 10:01:18;;;;;;;2.78;0.20;;;5.50;99.90;;;;;;5026338;28;20073;-78
2021/04/06 10:03:53;;;;;;;3.45;0.20;;;5.20;99.90;;;;;;5026427;28;20117;-78
2021/04/06 10:06:19;;;;;;;1.65;0.20;;;5.00;99.90;;;;;;5008707;28;20052;-78
2021/04/06 10:08:45;;;;;;;1.73;0.20;;;4.80;99.90;;;;;;5024841;28;20075;-78
2021/04/06 10:11:21;;;;;;;2.83;0.20;;;4.40;99.90;;;;;;5008689;28;20497;-78
2021/04/06 10:13:46;;;;;;;3.20;0.25;;;4.00;99.90;;;;;;5025123;28;20057;-78
2021/04/06 10:16:17;;;;;;;1.20;0.20;;;3.90;99.90;;;;;;5008822;28;20037;-78
2021/04/06 10:18:46;;;;;;;3.55;0.20;;;4.30;99.90;;;;;;5024991;28;20172;-78
2021/04/06 10:21:18;;;;;;;2.55;0.20;;;5.20;99.90;;;;;;5025132;28;20033;-79
2021/04/06 10:23:43;;;;;;;3.25;0.22;;;5.60;99.90;;;;;;5025016;28;20033;-79
2021/04/06 10:26:23;;;;;;;3.20;0.10;;;6.10;99.90;;;;;;5024645;28;20056;-79
2021/04/06 10:29:01;;;;;;;4.55;0.20;;;6.10;99.90;;;;;;5024757;28;20062;-79
2021/04/06 10:31:42;;;;;;;2.05;0.20;;;5.70;99.90;;;;;;5024773;28;20105;-79
2021/04/06 10:34:07;;;;;;;;;;;5.70;99.90;;;;;;5024471;28;20038;-79
2021/04/06 10:36:33;;;;;;;0.90;0.10;;;6.00;99.90;;;;;;5025792;28;19957;-79
2021/04/06 10:39:05;;;;;;;3.35;0.50;;;5.90;99.90;;;;;;5025898;28;20038;-79
2021/04/06 10:41:34;;;;;;;2.75;0.10;;;5.90;99.90;;;;;;5024302;28;20033;-79
2021/04/06 10:44:03;;;;;;;1.38;0.15;;;6.10;99.90;;;;;;5024604;28;20099;-79
2021/04/06 10:46:28;;;;;;;1.33;0.32;;;5.80;99.90;;;;;;5024638;28;20034;-79
2021/04/06 10:49:05;;;;;;;2.70;0.60;;;5.70;99.90;;;;;;5025647;28;20069;-79
2021/04/06 10:51:33;;;;;;;1.77;0.13;;;6.20;99.90;;;;;;5025979;28;20037;-79
2021/04/06 10:54:07;;;;;;;2.28;0.20;;;6.50;99.90;;;;;;4991809;28;20500;-79
2021/04/06 10:56:44;;;;;;;1.50;0.20;;;5.80;99.90;;;;;;4991798;28;20125;-80
2021/04/06 10:59:12;;;;;;;2.15;0.10;;;6.00;99.90;;;;;;5007236;28;20025;-79
2021/04/06 11:01:43;;;;;;;1.85;0.20;;;5.60;99.90;;;;;;4991862;28;20065;-80
2021/04/06 11:04:15;;;;;;;0.82;0.15;;;6.00;99.90;;;;;;4991417;28;20064;-78
2021/04/06 11:06:44;;;;;;;1.10;0.20;;;6.20;99.90;;;;;;5024038;28;20094;-79
2021/04/06 11:09:22;;;;;;;1.75;0.30;;;6.20;99.90;;;;;;5007401;28;20471;-79
2021/04/06 11:11:50;;;;;;;3.90;0.85;;;5.70;99.90;;;;;;4991515;28;20034;-78
2021/04/06 11:14:19;;;;;;;4.32;0.20;;;5.10;99.90;;;;;;4991483;28;20037;-79
2021/04/06 11:16:46;;;;;;;4.63;0.30;;;4.60;99.90;;;;;;5040511;28;20030;-78
2021/04/06 11:19:33;;;;;;;2.78;0.30;;;4.30;99.90;;;;;;4991088;28;20034;-79
2021/04/06 11:22:04;;;;;;;3.30;0.20;;;4.30;99.90;;;;;;5007479;28;20033;-78
2021/04/06 11:24:32;;;;;;;2.03;0.20;;;4.10;99.90;;;;;;5007453;28;20038;-79
2021/04/06 11:26:59;;;;;;;1.60;0.13;;;4.30;99.90;;;;;;4991427;28;20034;-78
2021/04/06 11:29:30;;;;;;;3.17;0.20;;;4.80;99.90;;;;;;4991029;28;20042;-78
2021/04/06 11:31:58;;;;;;;3.38;0.28;;;5.40;99.90;;;;;;5007436;28;20454;-78
2021/04/06 11:34:24;;;;;;;6.75;0.28;;;5.50;99.90;;;;;;5023622;28;20069;-78
2021/04/06 11:36:50;;;;;;;2.75;0.20;;;5.90;99.90;;;;;;4980119;28;20298;-79
2021/04/06 11:39:19;;;;;;;5.20;0.20;;;5.90;99.90;;;;;;5006228;28;20337;-79
2021/04/06 11:41:48;;;;;;;2.65;0.20;;;5.80;99.90;;;;;;4988953;28;20026;-79
2021/04/06 11:44:15;;;;;;;1.05;0.10;;;6.20;99.90;;;;;;5005332;28;20498;-78
2021/04/06 11:46:41;;;;;;;3.90;0.20;;;6.30;99.90;;;;;;5008087;28;20470;-78
2021/04/06 11:49:09;;;;;;;2.33;0.10;;;5.90;99.90;;;;;;5008157;28;20045;-78
2021/04/06 11:51:36;;;;;;;2.53;0.10;;;5.80;99.90;;;;;;5018044;28;20033;-79
2021/04/06 11:54:02;;;;;;;2.42;0.10;;;6.00;99.90;;;;;;5011526;28;20037;-79
2021/04/06 11:56:28;;;;;;;5.55;0.20;;;5.90;99.90;;;;;;5011425;28;20097;-77
2021/04/06 11:58:53;;;;;;;2.42;0.20;;;5.30;99.90;;;;;;5011468;28;20486;-77
2021/04/06 12:01:19;;;;;;;1.85;0.35;;;4.60;99.90;;;;;;5011330;28;20036;-77
2021/04/06 12:03:44;;;;;;;2.40;0.55;;;4.20;99.90;;;;;;5011293;28;20034;-76
2021/04/06 12:06:10;;;;;;;2.35;0.10;;;4.00;99.90;;;;;;4992008;28;20125;-77
2021/04/06 12:08:36;;;;;;;2.15;0.10;;;3.80;99.90;;;;;;5008033;28;20052;-76
2021/04/06 12:11:02;;;;;;;1.25;0.10;;;3.70;99.90;;;;;;5007762;28;20113;-77
2021/04/06 12:13:29;;;;;;;2.60;0.10;;;3.70;99.90;;;;;;5009299;28;20057;-77
2021/04/06 12:15:55;;;;;;;2.30;0.10;;;3.60;99.90;;;;;;5009093;28;20034;-76
2021/04/06 12:18:21;;;;;;;1.65;0.10;;;3.50;99.90;;;;;;5009219;28;20031;-77
2021/04/06 12:20:46;;;;;;;0.77;0.10;;;3.50;99.90;;;;;;5008809;28;20165;-77
2021/04/06 12:23:12;;;;;;;1.58;0.03;;;3.60;99.90;;;;;;5007917;28;20035;-78
2021/04/06 12:25:37;;;;;;;0.77;0.00;;;3.50;99.90;;;;;;4975345;28;20042;-78
2021/04/06 12:28:03;;;;;;;1.08;0.10;;;3.50;99.90;;;;;;5007784;28;20031;-77
2021/04/06 12:30:29;;;;;;;0.98;0.10;;;3.50;99.90;;;;;;5007766;28;20046;-77
2021/04/06 12:32:55;;;;;;;2.10;0.10;;;4.20;99.90;;;;;;5007652;28;20401;-77
2021/04/06 12:35:21;;;;;;;1.63;0.43;;;5.10;99.90;;;;;;5008430;28;20037;-77
2021/04/06 12:37:47;;;;;;;3.25;0.10;;;4.80;99.90;;;;;;4990006;28;20054;-77
2021/04/06 12:40:13;;;;;;;1.30;0.10;;;4.90;99.90;;;;;;4982060;28;20130;-78
2021/04/06 12:42:39;;;;;;;1.33;0.10;;;5.00;99.90;;;;;;5004286;28;20086;-78
2021/04/06 12:45:08;;;;;;;3.40;0.10;;;4.80;99.90;;;;;;5006695;28;20121;-77
2021/04/06 12:47:33;;;;;;;0.95;0.10;;;5.80;99.90;;;;;;4978217;28;20057;-78
2021/04/06 12:50:00;;;;;;;1.83;0.10;;;5.80;99.90;;;;;;5006225;28;20065;-78
2021/04/06 12:52:25;;;;;;;1.70;0.10;;;5.80;99.90;;;;;;5005657;28;20031;-78
2021/04/06 12:54:51;;;;;;;2.30;0.10;;;5.80;99.90;;;;;;5006798;28;20030;-78
2021/04/06 12:57:17;;;;;;;3.95;0.20;;;6.30;99.90;;;;;;5008869;28;20085;-78
2021/04/06 12:59:43;;;;;;;0.50;0.10;;;6.20;99.90;;;;;;5015058;28;20034;-78
2021/04/06 13:02:09;;;;;;;1.73;0.10;;;6.50;99.90;;;;;;5018542;28;20039;-78
2021/04/06 13:04:34;;;;;;;2.22;0.25;;;6.00;99.90;;;;;;4978655;28;20045;-78
2021/04/06 13:07:01;;;;;;;2.65;0.20;;;6.00;99.90;;;;;;5005844;28;20113;-78
2021/04/06 13:09:27;;;;;;;3.40;0.35;;;5.40;99.90;;;;;;5005993;28;20098;-78
2021/04/06 13:11:52;;;;;;;3.53;0.20;;;4.20;99.90;;;;;;5002956;28;20438;-78
2021/04/06 13:14:18;;;;;;;4.40;0.30;;;3.90;99.90;;;;;;5005774;28;20049;-78
2021/04/06 13:16:44;;;;;;;1.98;0.10;;;3.20;99.90;;;;;;5006677;28;20052;-78